Date,TemperatureHighF,TemperatureAvgF,TemperatureLowF,DewpointHighF,DewpointAvgF,DewpointLowF,HumidityHigh,HumidityAvg,HumidityLow,PressureMaxIn,PressureMinIn,WindSpeedMaxMPH,WindSpeedAvgMPH,GustSpeedMaxMPH,PrecipitationSumIn
2014-1-1,66,62,59,63,58,52,92,86,71,30.26,30.09,11,7,16,0.00
2014-1-2,82,70,63,69,64,61,93,84,56,30.08,29.84,16,8,26,0.00
2014-1-3,66,49,43,63,37,27,89,64,43,30.27,29.91,15,12,27,0.00
2014-1-4,67,56,45,58,49,-100,91,79,65,30.24,30.09,8,4,12,0.00
2014-1-5,82,68,59,66,61,56,91,79,53,30.10,29.97,10,4,15,0.00
2014-1-6,78,63,45,66,44,-100,93,73,31,30.29,29.97,18,9,28,0.00
2014-1-7,48,41,35,32,8,-100,80,45,27,30.42,30.28,15,11,25,0.00
2014-1-8,66,53,36,53,44,31,82,71,55,30.40,30.28,12,9,18,0.00
2014-1-9,69,63,59,65,59,53,92,86,75,30.31,30.22,9,6,15,0.00
2014-1-10,77,70,67,69,66,64,93,87,72,30.23,30.08,6,3,35,0.00
2014-1-11,84,74,67,70,67,63,93,78,52,30.10,29.94,16,9,26,0.00
2014-1-24,59,48,39,38,26,-100,89,54,28,30.47,30.30,15,9,24,0.00
2014-1-25,70,54,41,50,42,-100,86,68,47,30.29,30.04,11,5,15,0.00
2014-1-26,66,58,45,59,54,43,93,87,75,30.09,30.00,7,3,42,0.00
2014-1-27,77,66,58,64,59,56,93,81,55,30.04,29.95,11,5,17,0.00
2014-1-28,80,65,52,62,57,50,94,77,45,30.07,29.97,9,3,14,0.00
2014-1-29,66,54,46,61,51,43,93,87,79,30.18,29.98,15,9,22,0.00
2014-1-30,52,49,46,50,47,44,93,92,91,30.18,30.09,12,8,20,0.00
2014-1-31,64,57,51,62,55,49,94,93,92,30.13,30.04,8,5,13,0.00
2014-2-1,81,68,60,69,62,-100,94,84,61,30.15,30.06,7,3,10,0.00
2014-2-2,85,72,65,70,64,57,93,79,40,30.17,30.06,11,4,52,0.00
2014-2-3,85,71,59,69,63,57,94,77,44,30.14,30.03,10,3,15,0.00
2014-2-4,86,72,62,69,63,59,93,77,44,30.14,30.03,10,5,17,0.00
2014-2-5,84,72,65,70,67,63,93,84,58,30.09,29.98,11,4,19,0.00
2014-2-6,70,66,53,68,60,48,92,83,69,30.17,30.04,14,6,32,0.00
2014-2-7,61,57,51,57,53,47,91,86,82,30.18,30.11,12,8,20,0.00
2014-2-8,66,59,57,60,56,54,92,88,79,30.14,30.06,12,6,19,0.00
2014-2-9,73,61,54,54,52,50,93,73,46,30.14,30.05,10,6,17,0.00
2014-2-10,77,61,45,53,48,44,94,68,32,30.13,30.04,6,4,11,0.00
2014-2-11,82,65,49,62,54,47,91,69,39,30.09,29.99,10,5,16,0.00
2014-2-12,79,67,56,62,59,54,93,78,53,30.05,29.73,22,6,32,0.00
2014-2-13,64,58,44,60,49,40,93,73,50,29.99,29.70,20,12,32,0.00
2014-2-14,67,53,36,45,38,32,96,62,28,30.09,29.95,9,4,15,0.00
2014-2-15,71,57,47,53,30,-100,88,55,18,30.15,29.93,15,8,22,0.00
2014-2-16,72,53,36,49,38,34,96,65,25,30.22,30.11,5,3,30,0.00
2014-2-17,79,59,40,48,33,-100,94,57,16,30.26,30.17,5,3,44,0.00
2014-2-18,82,64,45,57,49,44,94,65,27,30.26,30.16,6,3,11,0.00
2014-2-19,84,68,50,62,56,49,94,69,34,30.21,30.08,9,4,14,0.00
2014-2-20,85,69,52,65,60,50,94,75,40,30.19,30.08,13,6,30,0.00
2014-2-21,83,72,65,69,66,62,93,80,52,30.09,30.01,13,6,20,0.00
2014-2-22,81,72,66,70,67,64,93,84,63,30.12,30.03,8,4,37,0.00
2014-2-24,78,72,62,63,62,59,90,73,58,30.08,30.00,7,5,13,0.00
2014-2-25,81,68,57,63,59,56,94,75,42,30.08,29.96,9,4,15,0.00
2014-2-26,78,64,52,64,58,51,94,81,47,30.00,29.74,16,5,26,0.00
2014-2-27,64,59,54,62,54,49,93,84,72,29.98,29.78,12,5,18,0.00
2014-2-28,70,58,47,51,44,35,92,65,28,30.12,29.94,8,5,13,0.00
2014-3-1,72,56,46,58,50,44,94,82,50,30.24,30.09,8,4,12,0.00
2014-3-2,81,75,64,59,55,50,78,52,33,30.21,30.08,9,5,14,0.00
2014-3-3,83,69,52,61,55,50,94,65,34,30.10,29.98,13,6,20,0.00
2014-3-4,82,70,58,65,60,56,94,75,45,30.08,29.99,11,4,15,0.00
2014-3-5,76,66,61,64,60,58,93,82,64,30.07,30.00,9,5,12,0.00
2014-3-6,69,67,65,66,64,62,92,88,84,29.94,29.69,14,5,67,0.00
2014-3-7,67,61,50,62,53,42,93,75,58,30.08,29.78,15,10,25,0.00
2014-3-8,73,57,43,54,46,-100,91,69,45,30.18,30.06,11,4,16,0.00
2014-3-9,79,66,48,57,52,46,94,64,34,30.22,30.10,6,3,11,0.00
2014-3-10,79,66,52,54,50,44,92,59,30,30.15,29.99,8,4,15,0.00
2014-3-11,82,66,48,59,46,-100,94,64,29,30.03,29.86,8,4,14,0.00
2014-3-12,80,70,65,67,62,58,87,75,57,29.87,29.76,19,9,28,0.00
2014-3-13,68,61,50,59,35,-100,84,50,22,30.22,29.86,19,10,26,0.00
2014-3-14,75,56,39,49,43,37,95,65,35,30.29,30.18,11,6,18,0.00
2014-3-15,80,64,47,57,51,45,94,65,35,30.21,30.05,8,4,13,0.00
2014-3-16,84,70,56,62,56,-100,93,66,41,30.06,29.79,16,8,26,0.00
2014-3-17,77,72,68,70,64,-100,91,80,73,29.82,29.70,16,9,24,0.00
2014-3-18,75,67,60,70,54,47,89,66,37,30.06,29.63,18,9,35,0.00
2014-3-19,80,62,51,59,50,-100,94,80,31,30.12,30.03,9,4,13,0.00
2014-3-20,81,68,58,60,56,-100,93,70,44,30.10,29.98,10,5,16,0.00
2014-3-21,82,68,58,63,51,-100,93,70,38,30.12,30.02,12,6,42,0.00
2014-3-22,84,73,61,67,59,55,93,65,38,30.09,29.98,11,6,18,0.00
2014-3-23,83,70,62,65,59,-100,88,69,52,30.07,29.96,13,5,24,0.00
2014-3-24,75,69,65,65,62,59,91,80,56,30.09,29.93,8,4,14,0.00
2014-3-25,73,66,58,63,58,39,92,75,37,30.02,29.86,18,9,30,0.00
2014-3-26,63,54,43,44,8,-100,58,37,27,30.31,30.03,16,9,25,0.00
2014-3-27,68,65,57,56,54,50,75,68,64,30.35,30.24,10,6,18,0.00
2014-3-28,82,74,62,63,60,57,86,64,43,30.17,30.05,16,8,26,0.00
2014-3-29,81,70,65,71,65,62,93,84,66,30.08,29.90,14,6,25,0.00
2014-3-30,76,65,56,64,43,-100,90,57,19,30.09,29.94,13,9,20,0.00
2014-3-31,76,61,47,52,46,35,93,63,25,30.19,30.09,8,4,13,0.00
2014-4-1,83,67,45,57,41,-100,95,53,17,30.21,30.12,7,4,15,0.00
2014-4-2,84,67,50,59,52,47,94,65,28,30.22,30.13,11,4,16,0.00
2014-4-3,86,70,53,63,57,51,93,68,34,30.18,30.06,8,5,50,0.00
2014-4-4,85,74,60,64,60,56,93,66,39,30.11,30.01,11,5,16,0.00
2014-4-5,86,72,60,65,60,53,93,68,32,30.09,29.97,6,3,13,0.00
2014-4-6,86,73,61,66,59,-100,93,70,38,30.05,29.95,12,4,18,0.00
2014-4-7,89,78,68,69,65,60,88,65,38,29.98,29.85,15,9,21,0.00
2014-4-8,77,72,64,72,67,57,89,83,73,29.90,29.72,15,10,25,0.00
2014-4-9,74,66,57,57,51,44,83,60,34,30.19,29.88,11,7,20,0.00
2014-4-10,78,63,51,58,50,-100,93,70,36,30.31,30.18,10,5,15,0.00
2014-4-11,79,66,52,63,57,49,92,74,54,30.28,30.17,13,6,22,0.00
2014-4-14,88,80,67,61,58,54,79,48,31,29.93,29.89,11,5,16,0.00
2014-4-15,86,73,61,73,66,58,92,78,53,29.95,29.80,16,8,30,0.00
2014-4-16,77,65,53,62,55,45,86,70,54,30.15,29.95,13,10,21,0.00
2014-4-17,76,69,62,66,62,56,89,78,70,30.22,30.11,14,8,23,0.00
2014-4-18,82,72,67,70,66,64,91,82,55,30.16,29.94,12,6,21,0.00
2014-5-13,82,78,74,70,70,69,87,75,65,30.09,30.04,11,10,19,0.00
2014-5-14,87,78,72,73,71,69,91,78,55,30.09,29.97,14,8,32,0.00
2014-5-15,88,78,73,73,71,68,90,80,57,30.04,29.91,12,8,19,0.00
2014-5-16,78,73,64,57,31,-100,74,41,25,30.11,30.05,15,13,24,0.00
2014-5-20,69,68,67,61,61,60,78,76,74,30.20,30.20,4,4,6,0.00
2014-5-21,86,74,58,62,60,55,93,63,40,30.22,30.14,9,5,46,0.00
2014-5-22,89,78,62,67,61,-100,89,60,41,30.20,30.05,7,4,13,0.00
2014-5-23,93,79,65,69,65,59,92,65,32,30.13,30.03,7,4,13,0.00
2014-5-24,94,81,68,72,64,-100,92,64,31,30.11,30.02,6,4,11,0.00
2014-5-25,92,80,69,72,66,-100,92,67,39,30.16,30.04,9,5,14,0.00
2014-5-26,87,77,69,74,68,61,93,75,43,30.21,30.12,14,5,36,0.00
2014-5-27,88,77,66,71,67,64,93,72,44,30.19,30.07,11,4,16,0.00
2014-5-28,90,76,66,71,66,58,93,74,34,30.11,30.01,9,4,20,0.00
2014-5-29,90,76,66,72,67,64,92,74,43,30.07,30.00,14,5,34,0.00
2014-6-14,87,74,70,70,69,67,92,84,56,30.11,30.00,15,5,25,0.00
2014-6-15,91,75,68,73,62,-100,93,75,47,30.16,30.05,13,5,18,0.00
2014-6-16,88,74,67,71,68,65,93,82,50,30.19,30.09,7,3,12,0.00
2014-6-17,88,79,67,71,68,65,93,71,48,30.18,30.09,13,5,20,0.00
2014-6-18,87,77,69,72,70,67,93,79,52,30.15,30.08,6,4,12,0.00
2014-6-19,85,78,68,73,69,65,93,74,57,30.16,30.08,8,4,14,0.00
2014-6-20,90,79,70,74,70,67,91,73,47,30.10,30.02,10,6,16,0.00
2014-6-23,90,83,76,74,72,70,89,70,53,30.09,30.04,8,4,11,0.00
2014-6-24,91,81,72,74,72,69,92,75,51,30.16,30.07,11,4,19,0.00
2014-6-25,92,81,73,74,71,67,92,73,43,30.16,30.05,10,4,15,0.00
2014-6-26,92,81,71,73,71,69,92,72,47,30.14,29.97,9,4,12,0.00
2014-6-27,91,81,73,74,72,70,91,75,53,30.13,30.04,10,5,14,0.00
2014-6-29,93,81,74,75,72,69,91,76,45,30.14,30.04,12,5,23,0.00
2014-6-30,87,80,74,75,73,71,91,79,63,30.08,29.94,12,6,18,0.00
2014-7-1,91,81,74,75,72,70,92,75,51,29.97,29.87,16,9,24,0.00
2014-7-2,89,79,73,73,71,69,90,76,52,29.95,29.87,15,7,24,0.00
2014-7-3,91,80,74,76,73,72,91,80,53,30.10,29.95,10,6,17,0.00
2014-7-4,89,78,74,75,72,68,92,80,56,30.14,30.05,7,5,58,0.00
2014-7-5,90,77,73,74,72,70,92,83,54,30.15,30.07,7,4,14,0.00
2014-7-6,90,73,72,75,64,-100,92,81,49,30.11,30.05,14,4,57,0.00
2014-7-7,87,77,70,74,71,68,93,80,59,30.13,30.05,7,3,36,0.00
2014-7-8,91,84,74,75,72,70,92,68,50,30.16,30.08,10,5,56,0.00
2014-7-9,90,78,71,72,70,68,92,78,51,30.16,30.08,18,3,26,0.00
2014-7-25,93,84,74,75,73,71,92,70,50,30.10,30.04,7,4,10,0.00
2014-7-26,92,82,74,75,73,72,92,76,53,30.12,30.04,8,3,12,0.00
2014-7-27,91,81,76,76,74,73,91,80,57,30.10,30.04,10,5,16,0.00
2014-7-28,92,84,77,76,74,72,89,71,52,30.07,30.00,10,7,17,0.00
2014-7-29,89,82,75,77,74,71,89,78,61,29.99,29.94,17,7,31,0.00
2014-7-30,92,83,75,75,71,66,91,70,43,30.00,29.93,6,4,11,0.00
2014-7-31,92,71,73,74,59,67,90,74,45,30.00,29.93,7,3,13,0.00
2014-8-10,91,80,75,76,73,71,92,82,54,30.08,30.02,9,5,20,0.00
2014-8-11,86,79,75,76,73,70,89,79,70,30.07,30.01,10,6,15,0.00
2014-8-12,92,85,75,76,72,68,87,67,44,30.03,29.95,11,6,19,0.00
2014-8-13,90,81,73,76,73,70,92,77,56,30.04,29.97,14,5,21,0.00
2014-8-14,89,80,73,76,73,71,92,80,60,30.05,29.97,9,4,14,0.00
2014-8-15,89,80,74,76,72,66,92,77,59,30.06,29.97,15,6,24,0.00
2014-8-16,89,78,74,75,72,71,91,83,59,30.11,30.00,8,4,13,0.00
2014-8-17,94,82,74,76,72,70,90,73,47,30.14,30.05,8,4,13,0.00
2014-8-18,93,83,73,76,73,70,92,72,45,30.09,29.98,9,3,13,0.00
2014-8-19,95,83,73,77,72,68,92,71,41,30.07,29.97,7,3,14,0.00
2014-8-20,95,85,74,76,72,68,92,67,42,30.11,30.00,6,4,16,0.00
2014-8-21,95,83,74,76,73,70,92,74,46,30.15,30.04,9,3,14,0.00
2014-8-22,95,81,73,76,72,68,92,76,42,30.12,30.00,12,3,19,0.00
2014-8-23,94,81,71,75,71,68,92,74,46,30.03,29.88,10,4,17,0.00
2014-8-24,95,80,73,75,70,70,92,71,43,29.90,29.78,11,4,20,0.00
2014-8-25,89,83,77,75,72,68,88,71,51,29.88,29.80,16,10,27,0.00
2014-8-26,90,81,72,73,69,65,91,69,43,29.96,29.85,13,8,21,0.00
2014-8-27,90,80,71,72,70,67,92,72,48,30.02,29.92,10,5,18,0.00
2014-8-28,91,80,71,75,71,68,93,75,51,30.03,29.95,10,4,16,0.00
2014-8-29,93,79,73,76,72,69,91,80,50,30.16,30.00,11,5,28,0.00
2014-8-30,92,79,71,76,72,69,92,81,51,30.16,30.06,13,4,25,0.00
2014-8-31,90,77,72,76,70,70,93,78,53,30.15,30.07,7,4,13,0.00
2014-9-1,90,80,72,76,72,69,92,79,51,30.14,30.05,16,4,58,0.00
2014-9-2,90,80,72,75,72,70,93,75,51,30.12,30.00,8,4,15,0.00
2014-9-3,89,77,71,75,71,68,93,82,52,30.08,29.99,9,3,16,0.00
2014-9-4,89,78,71,75,71,68,93,78,50,30.12,30.04,12,4,18,0.00
2014-9-23,86,75,71,74,71,69,93,86,63,30.04,29.96,10,4,17,0.00
2014-9-24,83,76,70,73,70,68,93,84,70,30.10,30.00,11,6,19,0.00
2014-9-25,86,76,70,74,71,67,92,84,63,30.11,30.00,10,7,16,0.00
2014-9-26,87,77,73,75,72,70,92,85,63,30.04,29.96,10,4,20,0.00
2014-9-27,89,78,72,74,72,69,92,82,52,30.02,29.94,9,5,16,0.00
2014-9-28,87,76,73,75,72,71,92,84,65,30.02,29.91,8,4,16,0.00
2014-9-29,89,78,73,76,72,69,93,83,51,29.98,29.81,11,4,20,0.00
2014-9-30,82,77,73,75,72,71,92,84,74,29.86,29.81,6,4,15,0.00
2014-10-1,89,79,73,75,72,70,93,82,56,29.98,29.85,11,5,19,0.00
2014-10-2,92,81,74,74,71,68,90,74,48,30.04,29.97,10,4,17,0.00
2014-10-3,91,79,72,76,72,70,93,80,54,30.05,29.93,10,3,17,0.00
2014-10-4,87,78,66,73,69,57,90,75,56,29.95,29.83,13,7,19,0.00
2014-10-5,78,65,57,59,52,45,85,62,38,30.04,29.92,11,6,36,0.00
2014-10-6,82,70,59,65,59,54,90,70,49,30.10,30.01,8,4,12,0.00
2014-10-7,86,74,66,69,66,63,90,78,54,30.11,30.02,8,4,13,0.00
2014-10-8,89,77,71,72,68,65,93,77,45,30.15,30.04,7,3,12,0.00